createdAt,value
2019-06-10T00:02:52.772Z,22
2019-06-10T00:08:02.090Z,21.9
2019-06-10T00:13:08.607Z,21.8
2019-06-10T00:18:45.678Z,21.8
2019-06-10T00:23:13.841Z,21.7
2019-06-10T00:28:18.911Z,21.7
2019-06-10T00:33:25.820Z,21.7
2019-06-10T00:38:33.568Z,21.5
2019-06-10T00:43:38.445Z,21.4
2019-06-10T00:48:45.733Z,21.4
2019-06-10T00:53:53.083Z,21.3
2019-06-10T00:59:00.573Z,21.3
2019-06-10T01:04:15.917Z,21.3
2019-06-10T01:09:15.973Z,21.3
2019-06-10T01:14:23.509Z,21.2
2019-06-10T01:19:30.591Z,21.2
2019-06-10T01:24:36.164Z,21.1
2019-06-10T01:29:43.669Z,21
2019-06-10T01:34:51.761Z,20.9
2019-06-10T01:39:57.033Z,20.9
2019-06-10T01:45:03.096Z,20.8
2019-06-10T01:50:12.414Z,20.8
2019-06-10T01:55:21.630Z,20.7
2019-06-10T02:00:27.062Z,20.6
2019-06-10T02:05:24.605Z,20.6
2019-06-10T02:10:32.153Z,20.6
2019-06-10T02:15:36.878Z,20.5
2019-06-10T02:20:43.134Z,20.3
2019-06-10T02:25:48.390Z,20.2
2019-06-10T02:30:57.670Z,20.2
2019-06-10T02:35:57.126Z,20.1
2019-06-10T02:41:06.271Z,20
2019-06-10T02:46:23.061Z,20
2019-06-10T02:51:30.138Z,19.9
2019-06-10T02:56:36.110Z,19.9
2019-06-10T03:01:37.809Z,19.8
2019-06-10T03:06:44.679Z,19.7
2019-06-10T03:11:38.628Z,19.7
2019-06-10T03:16:34.767Z,19.7
2019-06-10T03:21:39.683Z,19.7
2019-06-10T03:26:47.497Z,19.7
2019-06-10T03:31:57.277Z,19.8
2019-06-10T03:37:04.373Z,19.9
2019-06-10T03:42:09.331Z,19.9
2019-06-10T03:47:19.084Z,20.2
2019-06-10T03:52:29.632Z,20.4
2019-06-10T03:57:29.779Z,20.5
2019-06-10T04:02:29.822Z,20.7
2019-06-10T04:07:36.615Z,20.7
2019-06-10T04:12:44.425Z,21.1
2019-06-10T04:17:49.166Z,21.1
2019-06-10T04:22:54.045Z,21.2
2019-06-10T04:27:57.792Z,21.6
2019-06-10T04:33:04.201Z,21.9
2019-06-10T04:38:08.906Z,21.9
2019-06-10T04:43:14.380Z,22.3
2019-06-10T04:48:23.473Z,22.6
2019-06-10T04:53:26.384Z,22.8
2019-06-10T04:58:33.315Z,23.2
2019-06-10T05:03:32.827Z,23.1
2019-06-10T05:08:36.541Z,23.1
2019-06-10T05:13:44.527Z,23.2
2019-06-10T05:18:54.804Z,23.4
2019-06-10T05:23:52.089Z,23.4
2019-06-10T05:28:57.256Z,23.7
2019-06-10T05:34:04.380Z,24
2019-06-10T05:39:09.331Z,24
2019-06-10T05:44:17.086Z,24.5
2019-06-10T05:49:29.165Z,24.6
2019-06-10T05:54:33.146Z,24.7
2019-06-10T05:59:31.483Z,25
2019-06-10T06:04:36.046Z,25.5
2019-06-10T06:09:35.282Z,26
2019-06-10T06:14:42.431Z,26
2019-06-10T06:19:47.521Z,26.3
2019-06-10T06:24:54.158Z,26.5
2019-06-10T06:29:59.803Z,26.5
2019-06-10T06:35:03.979Z,27.2
2019-06-10T06:40:08.896Z,27.1
2019-06-10T06:45:14.500Z,27.6
2019-06-10T06:50:22.986Z,27.6
2019-06-10T06:55:20.233Z,27.7
2019-06-10T07:01:10.728Z,28.9
2019-06-10T07:05:29.764Z,28.9
2019-06-10T07:10:30.762Z,29.3
2019-06-10T07:15:30.958Z,29.7
2019-06-10T07:20:32.671Z,30.1
2019-06-10T07:25:41.180Z,30.3
2019-06-10T07:30:56.024Z,30.8
2019-06-10T07:35:46.328Z,31.2
2019-06-10T07:40:49.880Z,31.2
2019-06-10T07:45:57.970Z,30.7
2019-06-10T07:51:04.591Z,31.3
2019-06-10T07:56:12.619Z,31.5
2019-06-10T08:01:18.234Z,31.5
2019-06-10T08:06:24.765Z,31.7
2019-06-10T08:11:30.024Z,31.6
2019-06-10T08:21:50.169Z,31.8
2019-06-10T08:31:55.139Z,31.9
2019-06-10T08:37:05.415Z,31.9
2019-06-10T08:42:12.081Z,31.9
2019-06-10T08:47:18.302Z,32.9
2019-06-10T08:52:26.166Z,32.8
2019-06-10T08:57:33.359Z,32.7
2019-06-10T09:02:48.924Z,33.5
2019-06-10T09:07:55.894Z,33.5
2019-06-10T09:12:56.100Z,34
2019-06-10T09:17:57.573Z,34.4
2019-06-10T09:23:25.587Z,34.1
2019-06-10T09:28:04.183Z,34.9
2019-06-10T09:33:09.356Z,34.9
2019-06-10T09:38:16.191Z,35.6
2019-06-10T09:43:24.336Z,35.9
2019-06-10T09:48:29.465Z,35.8
2019-06-10T09:54:01.938Z,36.4
2019-06-10T09:58:50.602Z,36.4
2019-06-10T10:04:01.457Z,36.4
2019-06-10T10:09:00.287Z,35.4
2019-06-10T10:13:59.008Z,35.4
2019-06-10T10:19:07.174Z,34.7
2019-06-10T10:24:16.499Z,35.5
2019-06-10T10:29:21.249Z,35.6
2019-06-10T10:34:27.197Z,34.7
2019-06-10T10:39:34.499Z,34
2019-06-10T10:44:39.552Z,34
2019-06-10T10:49:47.025Z,33.4
2019-06-10T10:54:57.240Z,34
2019-06-10T11:00:04.978Z,33.1
2019-06-10T11:05:09.858Z,33.1
2019-06-10T11:10:17.088Z,33
2019-06-10T11:15:24.205Z,33.1
2019-06-10T11:20:28.976Z,33.1
2019-06-10T11:25:35.513Z,35.3
2019-06-10T11:30:42.574Z,35.3
2019-06-10T11:35:51.294Z,33.6
2019-06-10T11:41:00.113Z,33.3
2019-06-10T11:46:08.684Z,34.3
2019-06-10T11:51:06.552Z,33.6
2019-06-10T11:56:14.140Z,33.8
2019-06-10T12:01:19.400Z,33.8
2019-06-10T12:06:27.080Z,34
2019-06-10T12:11:35.855Z,34.1
2019-06-10T12:17:42.788Z,33.7
2019-06-10T12:21:45.478Z,33.7
2019-06-10T12:26:58.345Z,33
2019-06-10T12:32:07.711Z,32.9
2019-06-10T12:37:16.946Z,32.8
2019-06-10T12:42:15.777Z,32.3
2019-06-10T12:47:22.764Z,32.3
2019-06-10T12:52:28.187Z,31.8
2019-06-10T12:57:34.461Z,32.3
2019-06-10T13:02:39.691Z,32.3
2019-06-10T13:07:47.403Z,31.9
2019-06-10T13:12:55.853Z,31.7
2019-06-10T13:18:11.954Z,31.7
2019-06-10T13:23:32.512Z,32.1
2019-06-10T13:28:10.528Z,32.1
2019-06-10T13:33:16.573Z,32.1
2019-06-10T13:38:26.481Z,31.8
2019-06-10T13:43:33.029Z,31.9
2019-06-10T13:48:39.043Z,31.7
2019-06-10T13:53:39.055Z,31.9
2019-06-10T13:58:47.481Z,31.9
2019-06-10T14:03:55.535Z,31.9
2019-06-10T14:09:06.448Z,31.4
2019-06-10T14:14:17.974Z,31
2019-06-10T14:19:17.712Z,30.9
2019-06-10T14:24:24.736Z,31.1
2019-06-10T14:29:29.911Z,31.1
2019-06-10T14:34:34.813Z,31.3
2019-06-10T14:39:42.238Z,31.2
2019-06-10T14:44:48.505Z,31.2
2019-06-10T14:49:54.920Z,31.1
2019-06-10T14:55:02.405Z,31.1
2019-06-10T15:00:05.540Z,31.1
2019-06-10T15:05:04.461Z,31.3
2019-06-10T15:10:14.394Z,31.3
2019-06-10T15:15:16.233Z,31.2
2019-06-10T15:20:23.953Z,31.1
2019-06-10T15:25:43.597Z,31.1
2019-06-10T15:30:38.139Z,31.1
2019-06-10T15:35:44.596Z,31
2019-06-10T15:40:49.651Z,31
2019-06-10T15:45:57.229Z,31.1
2019-06-10T15:51:04.869Z,31
2019-06-10T15:56:49.811Z,31
2019-06-10T16:01:18.743Z,30.8
2019-06-10T16:06:13.882Z,30.8
2019-06-10T16:11:27.837Z,30.6
2019-06-10T16:16:24.112Z,30.5
2019-06-10T16:21:28.909Z,30.4
2019-06-10T16:26:37.287Z,30.2
2019-06-10T16:31:43.623Z,30.2
2019-06-10T16:36:48.614Z,30.1
2019-06-10T16:41:54.055Z,30.2
2019-06-10T16:46:59.290Z,30.1
2019-06-10T16:52:04.810Z,30.2
2019-06-10T16:57:13.409Z,30.1
2019-06-10T17:02:22.414Z,30.1
2019-06-10T17:07:24.706Z,30.1
2019-06-10T17:12:27.250Z,30
2019-06-10T17:17:26.946Z,29.9
2019-06-10T17:22:30.870Z,29.8
2019-06-10T17:27:32.386Z,29.7
2019-06-10T17:32:37.570Z,29.7
2019-06-10T17:37:44.909Z,29.5
2019-06-10T17:42:49.988Z,29.5
2019-06-10T17:47:56.101Z,29.3
2019-06-10T17:53:04.437Z,29.1
2019-06-10T17:58:08.261Z,29.1
2019-06-10T18:03:15.155Z,29
2019-06-10T18:08:18.875Z,28.9
2019-06-10T18:13:28.054Z,28.7
2019-06-10T18:18:26.308Z,28.6
2019-06-10T18:23:35.125Z,28.5
2019-06-10T18:29:09.737Z,28.3
2019-06-10T18:33:47.187Z,28.3
2019-06-10T18:38:54.398Z,28
2019-06-10T18:43:59.209Z,28
2019-06-10T18:49:07.369Z,27.8
2019-06-10T18:54:14.574Z,27.2
2019-06-10T18:59:22.932Z,27
2019-06-10T19:04:30.544Z,26.8
2019-06-10T19:09:35.850Z,26.8
2019-06-10T19:14:39.853Z,26.7
2019-06-10T19:19:40.801Z,26.6
2019-06-10T19:24:45.027Z,26.5
2019-06-10T19:29:55.324Z,26.4
2019-06-10T19:34:53.165Z,26.4
2019-06-10T19:40:01.467Z,26.4
2019-06-10T19:45:09.183Z,26.3
2019-06-10T19:50:06.644Z,26.3
2019-06-10T19:55:14.246Z,26.2
2019-06-10T20:00:22.043Z,26.2
2019-06-10T20:05:27.189Z,26.1
2019-06-10T20:10:35.961Z,25.9
2019-06-10T20:15:49.402Z,25.7
2019-06-10T20:20:50.151Z,25.6
2019-06-10T20:25:49.890Z,25.6
2019-06-10T20:30:57.260Z,25.6
2019-06-10T20:36:26.551Z,25.5
2019-06-10T20:41:14.473Z,25.4
2019-06-10T20:46:19.320Z,25.4
2019-06-10T20:51:28.465Z,25.1
2019-06-10T20:56:34.722Z,25
2019-06-10T21:01:47.493Z,24.8
2019-06-10T21:06:52.989Z,24.8
2019-06-10T21:11:58.100Z,24.7
2019-06-10T21:17:05.039Z,24.5
2019-06-10T21:22:10.352Z,24.5
2019-06-10T21:27:17.074Z,24.4
2019-06-10T21:32:21.993Z,24.3
2019-06-10T21:37:26.890Z,24.3
2019-06-10T21:42:32.609Z,24.2
2019-06-10T21:47:37.615Z,24.1
2019-06-10T21:52:48.719Z,24
2019-06-10T21:57:50.898Z,23.9
2019-06-10T22:02:59.180Z,23.9
2019-06-10T22:07:58.172Z,23.8
2019-06-10T22:13:05.048Z,23.6
2019-06-10T22:18:12.404Z,23.5
2019-06-10T22:23:17.469Z,23.4
2019-06-10T22:28:23.997Z,23.2
2019-06-10T22:33:28.921Z,23.1
2019-06-10T22:38:34.706Z,22.8
2019-06-10T22:43:39.672Z,22.8
2019-06-10T22:48:48.933Z,22.5
2019-06-10T22:54:03.446Z,22.4
2019-06-10T22:59:00.305Z,22.2
2019-06-10T23:04:08.166Z,22.2
2019-06-10T23:09:13.953Z,22.1
2019-06-10T23:14:19.009Z,22
2019-06-10T23:19:28.300Z,22
2019-06-10T23:24:34.108Z,22
2019-06-10T23:29:37.556Z,22
2019-06-10T23:34:44.145Z,21.8
2019-06-10T23:39:48.926Z,21.8
2019-06-10T23:44:57.230Z,21.7
2019-06-10T23:50:06.115Z,21.7
2019-06-10T23:55:14.886Z,21.6
